sensor_id;sensor_type;location;lat;lon;timestamp;pressure;altitude;pressure_sealevel;temperature;humidity
66176;BME280;52977;44.816;20.538;2023-04-29T00:00:13;99591.91;;;13.60;44.16
66176;BME280;52977;44.816;20.538;2023-04-29T00:02:39;99608.22;;;13.68;44.83
66176;BME280;52977;44.816;20.538;2023-04-29T00:05:05;99539.78;;;13.23;44.86
66176;BME280;52977;44.816;20.538;2023-04-29T00:07:31;99602.50;;;13.74;45.26
66176;BME280;52977;44.816;20.538;2023-04-29T00:09:58;99604.81;;;13.72;45.59
66176;BME280;52977;44.816;20.538;2023-04-29T00:12:25;99533.66;;;13.26;45.78
66176;BME280;52977;44.816;20.538;2023-04-29T00:14:51;99477.38;;;12.91;45.94
66176;BME280;52977;44.816;20.538;2023-04-29T00:17:17;99604.69;;;13.68;45.52
66176;BME280;52977;44.816;20.538;2023-04-29T00:19:44;99585.28;;;13.61;45.59
66176;BME280;52977;44.816;20.538;2023-04-29T00:22:10;99601.03;;;13.64;45.95
66176;BME280;52977;44.816;20.538;2023-04-29T00:24:36;99562.88;;;13.46;45.88
66176;BME280;52977;44.816;20.538;2023-04-29T00:27:02;99536.47;;;13.29;45.56
66176;BME280;52977;44.816;20.538;2023-04-29T00:29:28;99602.84;;;13.72;45.73
66176;BME280;52977;44.816;20.538;2023-04-29T00:31:54;99588.34;;;13.72;45.51
66176;BME280;52977;44.816;20.538;2023-04-29T00:34:21;99591.41;;;13.70;45.53
66176;BME280;52977;44.816;20.538;2023-04-29T00:36:47;99476.25;;;12.92;45.13
66176;BME280;52977;44.816;20.538;2023-04-29T00:39:14;99586.53;;;13.63;45.18
66176;BME280;52977;44.816;20.538;2023-04-29T00:41:40;99558.00;;;13.40;45.01
66176;BME280;52977;44.816;20.538;2023-04-29T00:44:05;99591.19;;;13.63;44.56
66176;BME280;52977;44.816;20.538;2023-04-29T00:46:32;99574.31;;;13.61;44.43
66176;BME280;52977;44.816;20.538;2023-04-29T00:48:58;99548.72;;;13.44;43.73
66176;BME280;52977;44.816;20.538;2023-04-29T00:51:25;99584.44;;;13.73;43.67
66176;BME280;52977;44.816;20.538;2023-04-29T00:53:51;99556.44;;;13.67;43.52
66176;BME280;52977;44.816;20.538;2023-04-29T00:56:18;99579.75;;;13.73;43.48
66176;BME280;52977;44.816;20.538;2023-04-29T00:58:45;99544.72;;;13.54;43.07
66176;BME280;52977;44.816;20.538;2023-04-29T01:01:18;99573.38;;;13.69;43.35
66176;BME280;52977;44.816;20.538;2023-04-29T01:03:45;99583.75;;;13.76;43.35
66176;BME280;52977;44.816;20.538;2023-04-29T01:06:39;99583.66;;;13.72;43.66
66176;BME280;52977;44.816;20.538;2023-04-29T01:15:12;99587.53;;;13.71;42.92
66176;BME280;52977;44.816;20.538;2023-04-29T01:17:49;99557.75;;;13.45;42.79
66176;BME280;52977;44.816;20.538;2023-04-29T01:20:18;99582.53;;;13.61;43.11
66176;BME280;52977;44.816;20.538;2023-04-29T01:22:45;99548.25;;;13.42;43.33
66176;BME280;52977;44.816;20.538;2023-04-29T01:25:12;99581.25;;;13.71;42.90
66176;BME280;52977;44.816;20.538;2023-04-29T01:31:07;99569.69;;;13.77;42.22
66176;BME280;52977;44.816;20.538;2023-04-29T01:36:39;99481.78;;;13.21;42.09
66176;BME280;52977;44.816;20.538;2023-04-29T01:39:15;99569.69;;;13.77;42.21
66176;BME280;52977;44.816;20.538;2023-04-29T01:42:04;99536.84;;;13.53;42.50
66176;BME280;52977;44.816;20.538;2023-04-29T01:44:31;99505.09;;;13.39;42.96
66176;BME280;52977;44.816;20.538;2023-04-29T01:47:00;99563.41;;;13.77;42.87
66176;BME280;52977;44.816;20.538;2023-04-29T01:49:35;99516.88;;;13.40;42.59
66176;BME280;52977;44.816;20.538;2023-04-29T01:52:02;99571.53;;;13.73;42.57
66176;BME280;52977;44.816;20.538;2023-04-29T01:54:29;99484.31;;;13.26;42.31
66176;BME280;52977;44.816;20.538;2023-04-29T01:56:57;99546.97;;;13.64;42.34
66176;BME280;52977;44.816;20.538;2023-04-29T01:59:28;99556.22;;;13.72;42.28
66176;BME280;52977;44.816;20.538;2023-04-29T02:02:23;99489.78;;;13.26;42.33
66176;BME280;52977;44.816;20.538;2023-04-29T02:04:58;99538.75;;;13.64;42.51
66176;BME280;52977;44.816;20.538;2023-04-29T02:07:24;99441.06;;;13.07;42.46
66176;BME280;52977;44.816;20.538;2023-04-29T02:09:50;99536.81;;;13.65;43.23
66176;BME280;52977;44.816;20.538;2023-04-29T02:12:16;99535.31;;;13.67;43.72
66176;BME280;52977;44.816;20.538;2023-04-29T02:14:43;99545.13;;;13.68;43.97
66176;BME280;52977;44.816;20.538;2023-04-29T02:17:09;99515.34;;;13.42;43.84
66176;BME280;52977;44.816;20.538;2023-04-29T02:19:36;99547.09;;;13.68;43.58
66176;BME280;52977;44.816;20.538;2023-04-29T02:22:02;99536.84;;;13.53;43.79
66176;BME280;52977;44.816;20.538;2023-04-29T02:24:28;99535.13;;;13.48;43.74
66176;BME280;52977;44.816;20.538;2023-04-29T02:26:54;99570.28;;;13.71;43.90
66176;BME280;52977;44.816;20.538;2023-04-29T02:29:21;99517.28;;;13.29;44.05
66176;BME280;52977;44.816;20.538;2023-04-29T02:31:49;99539.34;;;13.08;44.76
66176;BME280;52977;44.816;20.538;2023-04-29T02:34:15;99514.25;;;12.81;45.66
66176;BME280;52977;44.816;20.538;2023-04-29T02:36:41;99546.88;;;12.99;46.70
66176;BME280;52977;44.816;20.538;2023-04-29T02:39:07;99529.09;;;12.93;47.53
66176;BME280;52977;44.816;20.538;2023-04-29T02:41:33;99490.69;;;12.56;49.04
66176;BME280;52977;44.816;20.538;2023-04-29T02:43:59;99545.63;;;13.09;48.53
66176;BME280;52977;44.816;20.538;2023-04-29T02:46:26;99505.91;;;13.03;49.60
66176;BME280;52977;44.816;20.538;2023-04-29T02:48:52;99515.94;;;13.11;49.95
66176;BME280;52977;44.816;20.538;2023-04-29T02:51:18;99506.59;;;13.12;50.73
66176;BME280;52977;44.816;20.538;2023-04-29T02:53:44;99520.28;;;13.24;52.57
66176;BME280;52977;44.816;20.538;2023-04-29T02:56:10;99525.44;;;13.26;55.16
66176;BME280;52977;44.816;20.538;2023-04-29T02:58:37;99519.81;;;13.22;56.36
66176;BME280;52977;44.816;20.538;2023-04-29T03:01:03;99527.69;;;13.24;56.51
66176;BME280;52977;44.816;20.538;2023-04-29T03:03:36;99527.25;;;13.22;56.64
66176;BME280;52977;44.816;20.538;2023-04-29T03:06:02;99521.88;;;13.13;56.63
66176;BME280;52977;44.816;20.538;2023-04-29T03:08:28;99474.50;;;12.88;56.28
66176;BME280;52977;44.816;20.538;2023-04-29T03:10:54;99457.63;;;12.73;55.96
66176;BME280;52977;44.816;20.538;2023-04-29T03:13:22;99518.13;;;13.05;56.08
66176;BME280;52977;44.816;20.538;2023-04-29T03:15:48;99506.03;;;13.06;56.19
66176;BME280;52977;44.816;20.538;2023-04-29T03:18:14;99497.13;;;12.97;55.96
66176;BME280;52977;44.816;20.538;2023-04-29T03:20:40;99483.06;;;12.86;56.49
66176;BME280;52977;44.816;20.538;2023-04-29T03:23:05;99494.25;;;12.93;56.75
66176;BME280;52977;44.816;20.538;2023-04-29T03:25:31;99503.72;;;12.96;56.98
66176;BME280;52977;44.816;20.538;2023-04-29T03:27:57;99490.84;;;12.84;57.61
66176;BME280;52977;44.816;20.538;2023-04-29T03:30:23;99504.91;;;12.95;57.89
66176;BME280;52977;44.816;20.538;2023-04-29T03:32:53;99425.91;;;12.35;58.60
66176;BME280;52977;44.816;20.538;2023-04-29T03:35:19;99463.31;;;12.56;58.54
66176;BME280;52977;44.816;20.538;2023-04-29T03:38:12;99513.91;;;12.83;58.91
66176;BME280;52977;44.816;20.538;2023-04-29T03:40:38;99516.50;;;12.79;59.21
66176;BME280;52977;44.816;20.538;2023-04-29T03:43:04;99444.38;;;12.26;59.24
66176;BME280;52977;44.816;20.538;2023-04-29T03:45:32;99518.56;;;12.70;59.56
66176;BME280;52977;44.816;20.538;2023-04-29T03:48:02;99532.13;;;12.67;60.10
66176;BME280;52977;44.816;20.538;2023-04-29T03:50:28;99534.97;;;12.58;60.30
66176;BME280;52977;44.816;20.538;2023-04-29T03:52:55;99534.50;;;12.56;60.38
66176;BME280;52977;44.816;20.538;2023-04-29T03:55:22;99494.78;;;12.37;59.96
66176;BME280;52977;44.816;20.538;2023-04-29T03:57:49;99516.13;;;12.44;59.82
66176;BME280;52977;44.816;20.538;2023-04-29T04:00:17;99530.88;;;12.52;59.41
66176;BME280;52977;44.816;20.538;2023-04-29T04:02:44;99558.22;;;12.06;61.47
66176;BME280;52977;44.816;20.538;2023-04-29T04:05:11;99567.66;;;11.87;61.21
66176;BME280;52977;44.816;20.538;2023-04-29T04:07:40;99550.97;;;11.38;61.04
66176;BME280;52977;44.816;20.538;2023-04-29T04:10:45;99484.41;;;10.83;61.77
66176;BME280;52977;44.816;20.538;2023-04-29T04:13:23;99575.41;;;11.34;62.64
66176;BME280;52977;44.816;20.538;2023-04-29T04:15:50;99448.06;;;10.61;61.68
66176;BME280;52977;44.816;20.538;2023-04-29T04:18:17;99572.50;;;11.39;61.60
66176;BME280;52977;44.816;20.538;2023-04-29T04:20:43;99581.69;;;11.35;61.41
66176;BME280;52977;44.816;20.538;2023-04-29T04:23:09;99584.13;;;11.27;61.54
66176;BME280;52977;44.816;20.538;2023-04-29T04:25:36;99575.81;;;11.45;60.12
66176;BME280;52977;44.816;20.538;2023-04-29T04:28:17;99576.34;;;11.38;59.85
66176;BME280;52977;44.816;20.538;2023-04-29T04:30:54;99482.00;;;10.81;59.76
66176;BME280;52977;44.816;20.538;2023-04-29T04:33:20;99573.00;;;11.33;60.98
66176;BME280;52977;44.816;20.538;2023-04-29T04:35:47;99572.81;;;11.38;61.71
66176;BME280;52977;44.816;20.538;2023-04-29T04:38:13;99512.38;;;10.80;62.85
66176;BME280;52977;44.816;20.538;2023-04-29T04:40:40;99588.34;;;11.16;62.19
66176;BME280;52977;44.816;20.538;2023-04-29T04:43:22;99585.31;;;11.18;61.63
66176;BME280;52977;44.816;20.538;2023-04-29T04:45:50;99536.44;;;10.86;61.88
66176;BME280;52977;44.816;20.538;2023-04-29T04:48:16;99563.41;;;11.26;61.65
66176;BME280;52977;44.816;20.538;2023-04-29T04:50:44;99572.66;;;11.34;62.77
66176;BME280;52977;44.816;20.538;2023-04-29T04:53:10;99572.50;;;11.39;62.57
66176;BME280;52977;44.816;20.538;2023-04-29T04:55:46;99558.38;;;11.58;62.75
66176;BME280;52977;44.816;20.538;2023-04-29T04:58:12;99562.19;;;11.87;60.79
66176;BME280;52977;44.816;20.538;2023-04-29T05:00:43;99543.59;;;11.80;60.31
66176;BME280;52977;44.816;20.538;2023-04-29T05:03:09;99565.22;;;12.16;59.54
66176;BME280;52977;44.816;20.538;2023-04-29T05:05:35;99516.50;;;11.45;60.48
66176;BME280;52977;44.816;20.538;2023-04-29T05:08:02;99569.31;;;11.58;61.59
66176;BME280;52977;44.816;20.538;2023-04-29T05:10:36;99559.06;;;11.76;61.03
66176;BME280;52977;44.816;20.538;2023-04-29T05:13:04;99549.44;;;11.91;60.03
66176;BME280;52977;44.816;20.538;2023-04-29T05:15:30;99546.09;;;12.07;59.52
66176;BME280;52977;44.816;20.538;2023-04-29T05:17:59;99546.16;;;12.19;59.26
66176;BME280;52977;44.816;20.538;2023-04-29T05:20:25;99519.44;;;12.04;59.37
66176;BME280;52977;44.816;20.538;2023-04-29T05:22:53;99495.50;;;12.01;59.44
66176;BME280;52977;44.816;20.538;2023-04-29T05:25:23;99490.72;;;11.89;59.41
66176;BME280;52977;44.816;20.538;2023-04-29T05:27:50;99564.13;;;12.41;59.59
66176;BME280;52977;44.816;20.538;2023-04-29T05:30:19;99467.47;;;11.83;59.79
66176;BME280;52977;44.816;20.538;2023-04-29T05:32:46;99554.78;;;12.42;59.77
66176;BME280;52977;44.816;20.538;2023-04-29T05:35:15;99558.56;;;12.50;59.98
66176;BME280;52977;44.816;20.538;2023-04-29T05:37:42;99495.41;;;12.09;60.15
66176;BME280;52977;44.816;20.538;2023-04-29T05:40:27;99570.44;;;12.54;60.42
66176;BME280;52977;44.816;20.538;2023-04-29T05:43:07;99504.31;;;12.19;60.05
66176;BME280;52977;44.816;20.538;2023-04-29T05:45:33;99567.72;;;12.67;59.19
66176;BME280;52977;44.816;20.538;2023-04-29T05:47:59;99572.88;;;12.68;58.63
66176;BME280;52977;44.816;20.538;2023-04-29T05:50:26;99570.13;;;12.68;58.06
66176;BME280;52977;44.816;20.538;2023-04-29T05:52:52;99571.53;;;12.74;58.11
66176;BME280;52977;44.816;20.538;2023-04-29T05:55:19;99572.78;;;12.77;57.39
66176;BME280;52977;44.816;20.538;2023-04-29T05:57:45;99544.22;;;12.65;57.07
66176;BME280;52977;44.816;20.538;2023-04-29T06:00:12;99552.13;;;12.79;56.92
66176;BME280;52977;44.816;20.538;2023-04-29T06:02:41;99530.78;;;12.60;56.53
66176;BME280;52977;44.816;20.538;2023-04-29T06:05:10;99575.75;;;12.84;56.50
66176;BME280;52977;44.816;20.538;2023-04-29T06:07:45;99566.19;;;12.90;57.07
66176;BME280;52977;44.816;20.538;2023-04-29T06:10:30;99522.09;;;12.58;58.07
66176;BME280;52977;44.816;20.538;2023-04-29T06:12:57;99574.63;;;12.97;58.01
66176;BME280;52977;44.816;20.538;2023-04-29T06:15:22;99533.06;;;12.71;58.00
66176;BME280;52977;44.816;20.538;2023-04-29T06:17:48;99590.81;;;12.90;58.67
66176;BME280;52977;44.816;20.538;2023-04-29T06:20:14;99583.53;;;12.94;58.32
66176;BME280;52977;44.816;20.538;2023-04-29T06:22:40;99561.25;;;12.83;57.61
66176;BME280;52977;44.816;20.538;2023-04-29T06:25:07;99584.78;;;12.97;57.31
66176;BME280;52977;44.816;20.538;2023-04-29T06:27:44;99554.63;;;12.72;57.34
66176;BME280;52977;44.816;20.538;2023-04-29T06:30:11;99599.97;;;12.94;57.57
66176;BME280;52977;44.816;20.538;2023-04-29T06:32:40;99594.38;;;13.03;56.51
66176;BME280;52977;44.816;20.538;2023-04-29T06:35:06;99571.88;;;12.97;56.37
66176;BME280;52977;44.816;20.538;2023-04-29T06:38:04;99574.06;;;13.04;56.15
66176;BME280;52977;44.816;20.538;2023-04-29T06:40:54;99514.22;;;12.69;55.76
66176;BME280;52977;44.816;20.538;2023-04-29T06:43:52;99581.59;;;13.20;56.01
66176;BME280;52977;44.816;20.538;2023-04-29T06:46:46;99556.38;;;13.02;55.41
66176;BME280;52977;44.816;20.538;2023-04-29T06:49:21;99562.97;;;13.13;55.34
66176;BME280;52977;44.816;20.538;2023-04-29T06:51:48;99586.06;;;13.24;55.52
66176;BME280;52977;44.816;20.538;2023-04-29T06:54:13;99568.25;;;13.18;56.00
66176;BME280;52977;44.816;20.538;2023-04-29T06:56:40;99600.69;;;13.41;55.22
66176;BME280;52977;44.816;20.538;2023-04-29T06:59:07;99564.59;;;13.14;55.53
66176;BME280;52977;44.816;20.538;2023-04-29T07:01:35;99554.75;;;13.13;55.61
66176;BME280;52977;44.816;20.538;2023-04-29T07:04:01;99585.75;;;13.38;55.38
66176;BME280;52977;44.816;20.538;2023-04-29T07:06:28;99609.16;;;13.48;55.93
66176;BME280;52977;44.816;20.538;2023-04-29T07:08:55;99438.34;;;12.33;55.52
66176;BME280;52977;44.816;20.538;2023-04-29T07:11:21;99585.97;;;13.45;55.88
66176;BME280;52977;44.816;20.538;2023-04-29T07:13:54;99613.03;;;13.59;55.88
66176;BME280;52977;44.816;20.538;2023-04-29T07:16:20;99612.00;;;13.64;55.79
66176;BME280;52977;44.816;20.538;2023-04-29T07:18:47;99511.94;;;13.08;55.64
66176;BME280;52977;44.816;20.538;2023-04-29T07:21:14;99604.19;;;13.78;54.95
66176;BME280;52977;44.816;20.538;2023-04-29T07:23:42;99600.88;;;13.85;54.82
66176;BME280;52977;44.816;20.538;2023-04-29T07:26:12;99597.34;;;13.84;54.84
66176;BME280;52977;44.816;20.538;2023-04-29T07:28:38;99607.72;;;13.91;55.59
66176;BME280;52977;44.816;20.538;2023-04-29T07:31:05;99605.63;;;14.00;55.58
66176;BME280;52977;44.816;20.538;2023-04-29T07:33:33;99610.53;;;14.07;55.35
66176;BME280;52977;44.816;20.538;2023-04-29T07:36:00;99604.25;;;14.07;55.50
66176;BME280;52977;44.816;20.538;2023-04-29T07:38:26;99586.78;;;13.99;55.28
66176;BME280;52977;44.816;20.538;2023-04-29T07:40:52;99596.47;;;14.09;54.46
66176;BME280;52977;44.816;20.538;2023-04-29T07:43:18;99607.75;;;14.19;54.42
66176;BME280;52977;44.816;20.538;2023-04-29T07:45:44;99604.31;;;14.23;55.29
66176;BME280;52977;44.816;20.538;2023-04-29T07:48:10;99614.34;;;14.31;57.45
66176;BME280;52977;44.816;20.538;2023-04-29T07:50:36;99605.94;;;14.40;55.82
66176;BME280;52977;44.816;20.538;2023-04-29T07:53:03;99614.53;;;14.38;56.45
66176;BME280;52977;44.816;20.538;2023-04-29T07:55:30;99591.13;;;14.28;56.06
66176;BME280;52977;44.816;20.538;2023-04-29T07:57:57;99565.88;;;14.23;56.14
66176;BME280;52977;44.816;20.538;2023-04-29T08:00:24;99580.78;;;14.38;55.17
66176;BME280;52977;44.816;20.538;2023-04-29T08:02:51;99572.50;;;14.22;55.19
66176;BME280;52977;44.816;20.538;2023-04-29T08:05:17;99584.03;;;14.27;55.49
66176;BME280;52977;44.816;20.538;2023-04-29T08:07:49;99608.34;;;14.41;55.89
66176;BME280;52977;44.816;20.538;2023-04-29T08:10:17;99594.97;;;14.40;54.83
66176;BME280;52977;44.816;20.538;2023-04-29T08:12:47;99609.44;;;14.52;55.14
66176;BME280;52977;44.816;20.538;2023-04-29T08:15:14;99560.03;;;14.24;55.33
66176;BME280;52977;44.816;20.538;2023-04-29T08:17:40;99588.31;;;14.41;54.90
66176;BME280;52977;44.816;20.538;2023-04-29T08:20:07;99549.75;;;14.21;55.32
66176;BME280;52977;44.816;20.538;2023-04-29T08:22:34;99610.84;;;14.46;55.47
66176;BME280;52977;44.816;20.538;2023-04-29T08:25:03;99621.47;;;14.48;55.62
66176;BME280;52977;44.816;20.538;2023-04-29T08:27:30;99630.19;;;14.50;55.93
66176;BME280;52977;44.816;20.538;2023-04-29T08:29:56;99619.72;;;14.56;55.65
66176;BME280;52977;44.816;20.538;2023-04-29T08:32:22;99553.22;;;14.18;55.28
66176;BME280;52977;44.816;20.538;2023-04-29T08:34:48;99595.78;;;14.40;55.52
66176;BME280;52977;44.816;20.538;2023-04-29T08:37:14;99619.25;;;14.66;55.42
66176;BME280;52977;44.816;20.538;2023-04-29T08:39:41;99624.13;;;14.73;55.31
66176;BME280;52977;44.816;20.538;2023-04-29T08:42:11;99573.19;;;14.47;55.00
66176;BME280;52977;44.816;20.538;2023-04-29T08:44:39;99581.53;;;14.50;54.83
66176;BME280;52977;44.816;20.538;2023-04-29T08:47:06;99574.78;;;14.48;54.28
66176;BME280;52977;44.816;20.538;2023-04-29T08:49:32;99561.75;;;14.45;53.78
66176;BME280;52977;44.816;20.538;2023-04-29T08:51:59;99560.25;;;14.47;53.46
66176;BME280;52977;44.816;20.538;2023-04-29T08:54:25;99500.22;;;14.17;52.90
66176;BME280;52977;44.816;20.538;2023-04-29T08:56:54;99571.28;;;14.63;52.79
66176;BME280;52977;44.816;20.538;2023-04-29T08:59:21;99611.69;;;15.07;53.28
66176;BME280;52977;44.816;20.538;2023-04-29T09:01:49;99596.69;;;15.04;52.38
66176;BME280;52977;44.816;20.538;2023-04-29T09:06:55;99569.97;;;15.05;52.63
66176;BME280;52977;44.816;20.538;2023-04-29T09:09:23;99592.41;;;15.23;52.30
66176;BME280;52977;44.816;20.538;2023-04-29T09:11:49;99520.00;;;14.83;52.55
66176;BME280;52977;44.816;20.538;2023-04-29T09:14:15;99583.59;;;15.33;50.90
66176;BME280;52977;44.816;20.538;2023-04-29T09:16:45;99545.25;;;15.05;50.09
66176;BME280;52977;44.816;20.538;2023-04-29T09:19:28;99595.31;;;15.46;50.68
66176;BME280;52977;44.816;20.538;2023-04-29T09:21:54;99571.91;;;15.36;50.28
66176;BME280;52977;44.816;20.538;2023-04-29T09:24:26;99546.81;;;15.22;50.04
66176;BME280;52977;44.816;20.538;2023-04-29T09:26:53;99597.59;;;15.60;49.68
66176;BME280;52977;44.816;20.538;2023-04-29T09:29:19;99601.91;;;15.61;49.16
66176;BME280;52977;44.816;20.538;2023-04-29T09:31:46;99596.34;;;15.58;47.84
66176;BME280;52977;44.816;20.538;2023-04-29T09:34:12;99568.00;;;15.37;47.75
66176;BME280;52977;44.816;20.538;2023-04-29T09:36:46;99586.50;;;15.57;48.77
66176;BME280;52977;44.816;20.538;2023-04-29T09:39:17;99539.97;;;15.32;48.68
66176;BME280;52977;44.816;20.538;2023-04-29T09:44:20;99584.78;;;15.68;49.71
66176;BME280;52977;44.816;20.538;2023-04-29T09:49:31;99587.25;;;15.73;50.00
66176;BME280;52977;44.816;20.538;2023-04-29T09:52:08;99573.13;;;15.75;49.22
66176;BME280;52977;44.816;20.538;2023-04-29T09:54:35;99582.09;;;15.87;50.05
66176;BME280;52977;44.816;20.538;2023-04-29T09:57:02;99551.47;;;15.53;49.28
66176;BME280;52977;44.816;20.538;2023-04-29T09:59:33;99572.09;;;15.79;49.63
66176;BME280;52977;44.816;20.538;2023-04-29T10:02:01;99554.53;;;15.68;49.66
66176;BME280;52977;44.816;20.538;2023-04-29T10:04:34;99560.38;;;16.02;50.00
66176;BME280;52977;44.816;20.538;2023-04-29T10:07:00;99574.66;;;16.08;49.05
66176;BME280;52977;44.816;20.538;2023-04-29T10:09:28;99556.41;;;15.99;49.20
66176;BME280;52977;44.816;20.538;2023-04-29T10:11:54;99557.53;;;15.98;48.99
66176;BME280;52977;44.816;20.538;2023-04-29T10:14:22;99551.50;;;15.73;49.39
66176;BME280;52977;44.816;20.538;2023-04-29T10:17:09;99573.28;;;15.98;49.77
66176;BME280;52977;44.816;20.538;2023-04-29T10:19:47;99564.19;;;15.97;49.66
66176;BME280;52977;44.816;20.538;2023-04-29T10:22:32;99567.59;;;16.10;49.71
66176;BME280;52977;44.816;20.538;2023-04-29T10:25:01;99508.69;;;15.76;49.80
66176;BME280;52977;44.816;20.538;2023-04-29T10:27:32;99575.00;;;16.06;49.65
66176;BME280;52977;44.816;20.538;2023-04-29T10:29:59;99562.25;;;15.98;50.10
66176;BME280;52977;44.816;20.538;2023-04-29T10:32:27;99555.16;;;15.97;50.16
66176;BME280;52977;44.816;20.538;2023-04-29T10:34:55;99558.91;;;16.08;49.93
66176;BME280;52977;44.816;20.538;2023-04-29T10:37:22;99530.75;;;15.95;50.95
66176;BME280;52977;44.816;20.538;2023-04-29T10:45:24;99533.28;;;16.04;50.20
66176;BME280;52977;44.816;20.538;2023-04-29T10:50:32;99556.66;;;16.33;49.84
66176;BME280;52977;44.816;20.538;2023-04-29T10:53:02;99544.84;;;16.33;50.05
66176;BME280;52977;44.816;20.538;2023-04-29T10:55:28;99545.75;;;16.40;49.24
66176;BME280;52977;44.816;20.538;2023-04-29T10:57:55;99540.00;;;16.49;48.95
66176;BME280;52977;44.816;20.538;2023-04-29T11:00:26;99535.50;;;16.61;48.45
66176;BME280;52977;44.816;20.538;2023-04-29T11:02:53;99545.16;;;16.74;48.75
66176;BME280;52977;44.816;20.538;2023-04-29T11:05:30;99544.19;;;16.86;48.90
66176;BME280;52977;44.816;20.538;2023-04-29T11:10:36;99521.59;;;16.77;47.62
66176;BME280;52977;44.816;20.538;2023-04-29T11:13:20;99545.00;;;17.10;47.74
66176;BME280;52977;44.816;20.538;2023-04-29T11:15:47;99472.63;;;16.66;46.92
66176;BME280;52977;44.816;20.538;2023-04-29T11:18:13;99512.88;;;16.94;47.94
66176;BME280;52977;44.816;20.538;2023-04-29T11:23:35;99500.50;;;17.11;47.65
66176;BME280;52977;44.816;20.538;2023-04-29T11:26:02;99545.56;;;17.49;47.50
66176;BME280;52977;44.816;20.538;2023-04-29T11:28:30;99513.13;;;17.39;47.11
66176;BME280;52977;44.816;20.538;2023-04-29T11:31:15;99540.78;;;17.73;46.57
66176;BME280;52977;44.816;20.538;2023-04-29T11:33:41;99544.47;;;17.84;46.22
66176;BME280;52977;44.816;20.538;2023-04-29T11:36:08;99539.88;;;17.96;46.54
66176;BME280;52977;44.816;20.538;2023-04-29T11:38:38;99543.88;;;17.98;45.70
66176;BME280;52977;44.816;20.538;2023-04-29T11:41:05;99517.66;;;17.85;45.92
66176;BME280;52977;44.816;20.538;2023-04-29T11:43:31;99524.59;;;18.02;45.68
66176;BME280;52977;44.816;20.538;2023-04-29T11:45:57;99539.31;;;18.13;45.28
66176;BME280;52977;44.816;20.538;2023-04-29T11:48:25;99523.38;;;17.99;45.47
66176;BME280;52977;44.816;20.538;2023-04-29T11:50:56;99542.25;;;17.93;45.62
66176;BME280;52977;44.816;20.538;2023-04-29T11:53:25;99542.16;;;17.90;46.39
66176;BME280;52977;44.816;20.538;2023-04-29T11:55:53;99519.06;;;17.71;45.67
66176;BME280;52977;44.816;20.538;2023-04-29T11:58:20;99533.25;;;17.70;45.92
66176;BME280;52977;44.816;20.538;2023-04-29T12:00:47;99537.81;;;17.58;46.45
66176;BME280;52977;44.816;20.538;2023-04-29T12:05:53;99523.06;;;17.77;47.02
66176;BME280;52977;44.816;20.538;2023-04-29T12:10:47;99492.31;;;17.75;46.68
66176;BME280;52977;44.816;20.538;2023-04-29T12:13:15;99489.63;;;17.83;45.44
66176;BME280;52977;44.816;20.538;2023-04-29T12:15:42;99501.41;;;18.10;46.06
66176;BME280;52977;44.816;20.538;2023-04-29T12:18:09;99507.91;;;18.28;45.95
66176;BME280;52977;44.816;20.538;2023-04-29T12:20:35;99508.97;;;18.58;45.61
66176;BME280;52977;44.816;20.538;2023-04-29T12:23:19;99518.59;;;18.71;45.24
66176;BME280;52977;44.816;20.538;2023-04-29T12:25:53;99512.72;;;18.80;44.53
66176;BME280;52977;44.816;20.538;2023-04-29T12:28:19;99479.41;;;18.62;43.89
66176;BME280;52977;44.816;20.538;2023-04-29T12:30:46;99500.41;;;18.74;44.80
66176;BME280;52977;44.816;20.538;2023-04-29T12:33:23;99484.38;;;18.42;44.30
66176;BME280;52977;44.816;20.538;2023-04-29T12:35:54;99428.34;;;18.04;44.66
66176;BME280;52977;44.816;20.538;2023-04-29T12:38:26;99496.69;;;18.52;45.71
66176;BME280;52977;44.816;20.538;2023-04-29T12:40:52;99491.66;;;18.65;44.04
66176;BME280;52977;44.816;20.538;2023-04-29T12:43:18;99491.00;;;18.78;45.50
66176;BME280;52977;44.816;20.538;2023-04-29T12:45:45;99475.22;;;18.83;44.06
66176;BME280;52977;44.816;20.538;2023-04-29T12:48:11;99484.00;;;18.88;44.03
66176;BME280;52977;44.816;20.538;2023-04-29T12:50:57;99451.34;;;18.60;44.14
66176;BME280;52977;44.816;20.538;2023-04-29T12:53:25;99474.41;;;18.82;44.63
66176;BME280;52977;44.816;20.538;2023-04-29T12:55:52;99464.94;;;18.83;44.69
66176;BME280;52977;44.816;20.538;2023-04-29T12:58:19;99479.00;;;19.12;45.21
66176;BME280;52977;44.816;20.538;2023-04-29T13:00:45;99361.63;;;18.50;44.40
66176;BME280;52977;44.816;20.538;2023-04-29T13:03:11;99468.84;;;19.30;44.21
66176;BME280;52977;44.816;20.538;2023-04-29T13:05:38;99427.22;;;19.09;43.62
66176;BME280;52977;44.816;20.538;2023-04-29T13:08:04;99464.09;;;19.31;43.32
66176;BME280;52977;44.816;20.538;2023-04-29T13:10:35;99426.78;;;19.03;42.89
66176;BME280;52977;44.816;20.538;2023-04-29T13:13:01;99421.22;;;18.96;44.30
66176;BME280;52977;44.816;20.538;2023-04-29T13:15:28;99450.31;;;19.38;44.14
66176;BME280;52977;44.816;20.538;2023-04-29T13:17:54;99425.38;;;19.35;44.35
66176;BME280;52977;44.816;20.538;2023-04-29T13:20:23;99439.69;;;19.51;43.85
66176;BME280;52977;44.816;20.538;2023-04-29T13:22:49;99413.84;;;19.25;44.33
66176;BME280;52977;44.816;20.538;2023-04-29T13:25:15;99438.06;;;19.43;44.40
66176;BME280;52977;44.816;20.538;2023-04-29T13:27:42;99413.13;;;19.39;44.39
66176;BME280;52977;44.816;20.538;2023-04-29T13:30:09;99435.75;;;19.63;43.66
66176;BME280;52977;44.816;20.538;2023-04-29T13:32:35;99410.38;;;19.46;43.69
66176;BME280;52977;44.816;20.538;2023-04-29T13:35:02;99424.22;;;19.46;43.69
66176;BME280;52977;44.816;20.538;2023-04-29T13:37:29;99438.56;;;19.67;44.08